This is the latest recevied weather packets stored in our database for station/object SQ8SW-4. If no packets are shown the sender has not sent any weather packets the latest 10 day(s).
| Time | Temp. | Humidity | Pressure | Rain* | Wind** | Luminosity | Snow |
|---|---|---|---|---|---|---|---|
| 1777890876 | 23.89° C | 32% | 988 hPa | - | - | - | - |
| 1777889974 | 23.89° C | 31% | 988 hPa | - | - | - | - |
| 1777889072 | 23.33° C | 31% | 988 hPa | - | - | - | - |
| 1777888169 | 22.78° C | 32% | 988 hPa | - | - | - | - |
| 1777887267 | 22.78° C | 33% | 988 hPa | - | - | - | - |
| 1777886365 | 22.22° C | 32% | 988 hPa | - | - | - | - |
| 1777885463 | 22.22° C | 33% | 989 hPa | - | - | - | - |
| 1777884560 | 21.67° C | 33% | 989 hPa | - | - | - | - |
| 1777883658 | 21.11° C | 34% | 989 hPa | - | - | - | - |
| 1777882756 | 20.56° C | 35% | 989 hPa | - | - | - | - |
| 1777881854 | 20° C | 36% | 989 hPa | - | - | - | - |
| 1777880951 | 20° C | 37% | 989 hPa | - | - | - | - |
| 1777880049 | 19.44° C | 39% | 989 hPa | - | - | - | - |
| 1777879147 | 18.89° C | 39% | 989 hPa | - | - | - | - |
| 1777878245 | 17.78° C | 42% | 989 hPa | - | - | - | - |
| 1777877343 | 17.22° C | 44% | 989 hPa | - | - | - | - |
| 1777876440 | 16.67° C | 45% | 989 hPa | - | - | - | - |
| 1777875537 | 16.11° C | 47% | 989 hPa | - | - | - | - |
| 1777874635 | 15.56° C | 48% | 989 hPa | - | - | - | - |
| 1777873733 | 15° C | 49% | 988 hPa | - | - | - | - |
| 1777872831 | 13.89° C | 51% | 988 hPa | - | - | - | - |
| 1777871929 | 13.33° C | 55% | 989 hPa | - | - | - | - |
| 1777871026 | 12.22° C | 57% | 989 hPa | - | - | - | - |
| 1777870124 | 11.11° C | 59% | 989 hPa | - | - | - | - |
| 1777869222 | 10° C | 62% | 989 hPa | - | - | - | - |
* Rain since midnight (hover to see other rain measurements)
** Current wind speed in m/s (hover to see current wind gust speed)